📊 Raw Sensor Data

Showing records 38626 to 38650 of 84,932 total

ID Distance (ft) Battery V Battery A Int Temp (°F) Int Humid (%) Ext Temp (°F) Solar V RSSI SNR Time Stamp
46319 15.2 4.02 -5 61 46 62 0.00 -69 8 07/14/2025 11:15 PM
46318 15.3 3.96 -5 61 47 62 0.00 -69 7 07/14/2025 11:00 PM
46317 15.3 3.96 -5 62 47 63 0.00 -68 8 07/14/2025 10:45 PM
46316 15.2 4.03 -5 63 47 64 0.00 -68 8 07/14/2025 10:30 PM
46315 15.2 4.03 -5 64 48 65 0.10 -69 8 07/14/2025 10:15 PM
46314 15.2 4.03 -5 64 49 65 0.00 -70 8 07/14/2025 10:00 PM
46313 15.2 4.03 -5 66 50 66 0.00 -71 8 07/14/2025 09:45 PM
46312 15.2 3.97 -5 67 51 67 0.00 -73 8 07/14/2025 09:30 PM
46311 15.2 3.97 -5 68 52 68 0.00 -72 8 07/14/2025 09:15 PM
46310 15.2 3.97 -5 70 54 69 0.00 -72 8 07/14/2025 09:00 PM
46309 15.2 4.03 -5 72 55 71 0.40 -72 7 07/14/2025 08:45 PM
46308 15.3 3.96 -10 76 57 72 3.30 -73 8 07/14/2025 08:30 PM
46307 15.3 3.98 0 82 55 77 4.50 -73 7 07/14/2025 08:15 PM
46306 15.4 4.05 0 86 54 80 4.50 -75 8 07/14/2025 08:00 PM
46305 15.4 4.06 6 89 54 82 4.50 -73 7 07/14/2025 07:45 PM
46304 15.4 4.07 -8 95 53 87 4.50 -73 8 07/14/2025 07:15 PM
46303 15.4 4.05 29 97 53 88 4.50 -73 8 07/14/2025 07:00 PM
46302 15.5 4.09 25 100 52 90 4.50 -75 8 07/14/2025 06:45 PM
46301 15.7 4.02 0 102 51 96 5.10 -72 8 07/14/2025 06:30 PM
46300 15.5 4.04 0 103 51 95 5.10 -74 7 07/14/2025 06:15 PM
46299 15.5 4.02 0 105 50 98 5.10 -73 7 07/14/2025 06:00 PM
46298 15.5 4.02 0 105 50 97 5.10 -71 8 07/14/2025 05:45 PM
46297 15.5 4.02 0 106 49 97 5.10 -74 8 07/14/2025 05:30 PM
46296 15.6 4.11 0 108 48 98 5.10 -73 8 07/14/2025 05:15 PM
46295 15.5 4.02 0 108 47 101 5.10 -72 8 07/14/2025 05:00 PM